createdAt,value
2018-10-01T00:00:05.500Z,5.40
2018-10-01T00:02:38.442Z,7.80
2018-10-01T00:05:11.446Z,5.27
2018-10-01T00:07:44.188Z,5.67
2018-10-01T00:10:17.102Z,5.50
2018-10-01T00:12:50.024Z,4.60
2018-10-01T00:15:23.104Z,4.00
2018-10-01T00:17:55.823Z,4.93
2018-10-01T00:20:33.095Z,4.90
2018-10-01T00:23:06.080Z,5.47
2018-10-01T00:25:39.144Z,4.17
2018-10-01T00:28:11.880Z,4.30
2018-10-01T00:30:44.692Z,4.67
2018-10-01T00:33:17.134Z,4.50
2018-10-01T00:35:50.426Z,4.60
2018-10-01T00:38:23.302Z,4.60
2018-10-01T00:40:56.024Z,4.43
2018-10-01T00:43:28.755Z,6.73
2018-10-01T00:46:01.578Z,5.93
2018-10-01T00:48:34.571Z,4.30
2018-10-01T00:51:07.604Z,4.77
2018-10-01T00:53:40.379Z,4.60
2018-10-01T00:56:13.343Z,4.20
2018-10-01T00:58:46.200Z,4.47
2018-10-01T01:01:19.242Z,4.57
2018-10-01T01:03:52.284Z,4.87
2018-10-01T01:06:26.420Z,4.73
2018-10-01T01:08:59.353Z,3.90
2018-10-01T01:11:32.148Z,4.07
2018-10-01T01:14:04.892Z,4.50
2018-10-01T01:16:37.615Z,3.93
2018-10-01T01:19:10.510Z,5.23
2018-10-01T01:21:43.420Z,4.73
2018-10-01T01:24:15.627Z,4.07
2018-10-01T01:26:47.871Z,3.80
2018-10-01T01:29:20.903Z,4.33
2018-10-01T01:31:53.772Z,4.17
2018-10-01T01:34:25.977Z,5.40
2018-10-01T01:36:58.790Z,3.67
2018-10-01T01:39:31.404Z,2.60
2018-10-01T01:42:04.286Z,2.90
2018-10-01T01:44:37.008Z,5.23
2018-10-01T01:47:09.862Z,3.63
2018-10-01T01:49:42.081Z,3.13
2018-10-01T01:52:14.331Z,3.47
2018-10-01T01:54:46.527Z,3.27
2018-10-01T01:57:18.800Z,3.30
2018-10-01T01:59:51.631Z,3.17
2018-10-01T02:02:23.929Z,3.20
2018-10-01T02:04:56.124Z,3.40
2018-10-01T02:07:28.435Z,4.03
2018-10-01T02:10:00.635Z,3.50
2018-10-01T02:12:33.493Z,4.13
2018-10-01T02:15:06.495Z,3.97
2018-10-01T02:17:39.396Z,3.43
2018-10-01T02:20:12.358Z,3.10
2018-10-01T02:22:45.494Z,8.63
2018-10-01T02:25:18.651Z,9.33
2018-10-01T02:27:51.659Z,4.40
2018-10-01T02:30:24.307Z,4.73
2018-10-01T02:32:57.275Z,4.00
2018-10-01T02:35:29.533Z,4.67
2018-10-01T02:38:01.844Z,6.47
2018-10-01T02:40:34.044Z,5.63
2018-10-01T02:43:06.297Z,5.93
2018-10-01T02:45:38.628Z,7.23
2018-10-01T02:48:10.984Z,4.83
2018-10-01T02:50:43.183Z,4.47
2018-10-01T02:53:19.672Z,4.33
2018-10-01T02:55:51.877Z,4.50
2018-10-01T02:58:25.029Z,4.67
2018-10-01T03:00:57.976Z,5.13
2018-10-01T03:03:30.788Z,4.67
2018-10-01T03:06:03.609Z,4.97
2018-10-01T03:08:36.503Z,6.73
2018-10-01T03:11:08.703Z,4.23
2018-10-01T03:13:40.943Z,4.20
2018-10-01T03:16:13.164Z,3.70
2018-10-01T03:18:45.431Z,4.63
2018-10-01T03:21:17.707Z,4.87
2018-10-01T03:23:50.027Z,4.53
2018-10-01T03:26:22.449Z,3.70
2018-10-01T03:28:54.751Z,4.43
2018-10-01T03:31:27.436Z,4.10
2018-10-01T03:34:00.531Z,4.90
2018-10-01T03:36:33.458Z,4.43
2018-10-01T03:39:07.108Z,7.17
2018-10-01T03:41:40.685Z,4.27
2018-10-01T03:44:13.758Z,4.83
2018-10-01T03:46:46.788Z,4.03
2018-10-01T03:49:19.644Z,4.70
2018-10-01T03:51:52.280Z,4.43
2018-10-01T03:54:25.248Z,5.07
2018-10-01T03:56:58.120Z,5.10
2018-10-01T03:59:31.045Z,4.77
2018-10-01T04:02:03.583Z,4.13
2018-10-01T04:04:36.346Z,4.80
2018-10-01T04:07:09.087Z,4.43
2018-10-01T04:09:41.682Z,5.63
2018-10-01T04:12:14.318Z,5.67
2018-10-01T04:14:47.399Z,4.80
2018-10-01T04:17:19.877Z,4.57
2018-10-01T04:19:52.846Z,4.70
2018-10-01T04:22:32.393Z,6.23
2018-10-01T04:25:05.203Z,6.07
2018-10-01T04:27:38.179Z,5.57
2018-10-01T04:30:13.647Z,5.20
2018-10-01T04:32:46.756Z,4.70
2018-10-01T04:35:19.653Z,5.83
2018-10-01T04:37:52.508Z,6.77
2018-10-01T04:40:25.331Z,5.47
2018-10-01T04:42:58.112Z,5.30
2018-10-01T04:45:30.933Z,6.17
2018-10-01T04:48:03.608Z,6.53
2018-10-01T04:50:36.202Z,5.80
2018-10-01T04:53:08.845Z,5.03
2018-10-01T04:55:41.718Z,5.43
2018-10-01T04:58:14.618Z,5.30
2018-10-01T05:00:47.607Z,5.43
2018-10-01T05:03:19.947Z,6.27
2018-10-01T05:05:52.740Z,5.60
2018-10-01T05:08:25.674Z,5.97
2018-10-01T05:10:58.712Z,4.93
2018-10-01T05:13:31.756Z,6.30
2018-10-01T05:16:04.712Z,5.53
2018-10-01T05:18:37.280Z,5.97
2018-10-01T05:21:10.048Z,6.30
2018-10-01T05:23:42.959Z,6.20
2018-10-01T05:26:16.030Z,5.30
2018-10-01T05:28:48.936Z,5.20
2018-10-01T05:31:21.670Z,4.93
2018-10-01T05:33:54.448Z,5.57
2018-10-01T05:36:27.194Z,5.50
2018-10-01T05:38:59.680Z,5.83
2018-10-01T05:41:32.799Z,5.70
2018-10-01T05:44:05.760Z,4.80
2018-10-01T05:46:38.849Z,5.40
2018-10-01T05:49:11.581Z,5.10
2018-10-01T05:51:44.972Z,5.70
2018-10-01T05:54:17.851Z,5.93
2018-10-01T05:56:50.470Z,6.77
2018-10-01T05:59:23.077Z,5.20
2018-10-01T06:01:56.121Z,5.43
2018-10-01T06:04:28.732Z,4.57
2018-10-01T06:07:01.522Z,4.70
2018-10-01T06:09:34.280Z,4.57
2018-10-01T06:12:07.504Z,4.47
2018-10-01T06:14:40.215Z,4.67
2018-10-01T06:17:13.319Z,4.40
2018-10-01T06:19:46.349Z,4.60
2018-10-01T06:22:19.123Z,5.70
2018-10-01T06:24:51.634Z,6.50
2018-10-01T06:27:24.524Z,6.03
2018-10-01T06:29:57.595Z,5.30
2018-10-01T06:32:30.484Z,5.23
2018-10-01T06:35:03.399Z,4.87
2018-10-01T06:37:36.231Z,4.77
2018-10-01T06:40:09.264Z,4.27
2018-10-01T06:42:42.270Z,4.30
2018-10-01T06:45:14.799Z,4.30
2018-10-01T06:47:47.640Z,4.27
2018-10-01T06:50:20.248Z,4.53
2018-10-01T06:52:53.047Z,4.40
2018-10-01T06:55:25.751Z,4.33
2018-10-01T06:57:58.667Z,4.10
2018-10-01T07:00:31.297Z,4.97
2018-10-01T07:03:04.590Z,4.13
2018-10-01T07:05:37.438Z,4.17
2018-10-01T07:08:10.598Z,4.00
2018-10-01T07:10:43.620Z,4.20
2018-10-01T07:13:16.328Z,4.10
2018-10-01T07:15:48.866Z,4.00
2018-10-01T07:18:21.614Z,4.40
2018-10-01T07:20:54.258Z,3.60
2018-10-01T07:23:27.201Z,3.77
2018-10-01T07:25:59.927Z,4.17
2018-10-01T07:28:33.077Z,4.57
2018-10-01T07:31:05.614Z,3.87
2018-10-01T07:33:38.560Z,4.13
2018-10-01T07:36:11.517Z,4.03
2018-10-01T07:38:44.446Z,3.30
2018-10-01T07:41:17.184Z,3.30
2018-10-01T07:43:49.928Z,3.10
2018-10-01T07:46:22.879Z,3.47
2018-10-01T07:48:55.821Z,3.17
2018-10-01T07:51:29.028Z,3.00
2018-10-01T07:54:01.853Z,3.00
2018-10-01T07:56:34.472Z,2.83
2018-10-01T07:59:07.198Z,2.63
2018-10-01T08:01:40.672Z,3.30
2018-10-01T08:04:13.696Z,4.10
2018-10-01T08:06:46.705Z,4.30
2018-10-01T08:09:19.478Z,4.53
2018-10-01T08:11:52.080Z,3.60
2018-10-01T08:14:24.883Z,3.33
2018-10-01T08:16:57.455Z,2.97
2018-10-01T08:19:30.387Z,3.00
2018-10-01T08:22:03.096Z,2.90
2018-10-01T08:24:35.844Z,3.27
2018-10-01T08:27:08.697Z,2.50
2018-10-01T08:29:41.670Z,4.17
2018-10-01T08:32:14.524Z,2.73
2018-10-01T08:34:47.811Z,3.10
2018-10-01T08:37:20.448Z,3.10
2018-10-01T08:39:53.294Z,2.90
2018-10-01T08:42:26.220Z,2.97
2018-10-01T08:44:59.271Z,2.83
2018-10-01T08:47:32.464Z,2.97
2018-10-01T08:50:15.287Z,3.10
2018-10-01T08:53:01.177Z,3.43
2018-10-01T08:55:34.108Z,3.50
2018-10-01T08:58:06.756Z,3.90
2018-10-01T09:00:39.599Z,3.37
2018-10-01T09:03:12.371Z,3.50
2018-10-01T09:05:45.284Z,3.37
2018-10-01T09:08:18.044Z,3.47
2018-10-01T09:10:50.784Z,3.23
2018-10-01T09:13:23.404Z,4.07
2018-10-01T09:15:56.135Z,3.40
2018-10-01T09:18:28.767Z,4.47
2018-10-01T09:21:01.696Z,4.03
2018-10-01T09:23:34.599Z,4.07
2018-10-01T09:26:07.470Z,4.57
2018-10-01T09:28:40.347Z,4.20
2018-10-01T09:31:13.269Z,3.60
2018-10-01T09:33:46.061Z,3.43
2018-10-01T09:36:19.029Z,3.30
2018-10-01T09:38:51.703Z,3.87
2018-10-01T09:41:24.774Z,3.80
2018-10-01T09:43:57.412Z,3.03
2018-10-01T09:46:30.036Z,3.87
2018-10-01T09:49:02.780Z,4.07
2018-10-01T09:51:35.552Z,3.90
2018-10-01T09:54:08.270Z,3.40
2018-10-01T09:56:41.327Z,3.93
2018-10-01T09:59:14.125Z,4.17
2018-10-01T10:01:46.932Z,5.33
2018-10-01T10:04:19.836Z,5.13
2018-10-01T10:06:52.715Z,5.23
2018-10-01T10:09:25.571Z,5.43
2018-10-01T10:11:58.433Z,5.50
2018-10-01T10:14:31.267Z,5.70
2018-10-01T10:17:03.972Z,5.50
2018-10-01T10:19:36.664Z,6.27
2018-10-01T10:22:09.505Z,7.63
2018-10-01T10:24:42.188Z,7.00
2018-10-01T10:27:15.135Z,7.13
2018-10-01T10:29:47.880Z,7.23
2018-10-01T10:32:20.617Z,9.03
2018-10-01T10:34:53.212Z,7.40
2018-10-01T10:37:26.204Z,9.57
2018-10-01T10:39:58.873Z,9.03
2018-10-01T10:42:31.673Z,9.70
2018-10-01T10:45:04.577Z,8.27
2018-10-01T10:47:37.277Z,6.40
2018-10-01T10:50:10.831Z,6.60
2018-10-01T10:52:43.835Z,6.17
2018-10-01T10:55:16.650Z,6.03
2018-10-01T10:57:49.677Z,6.03
2018-10-01T11:00:22.464Z,6.60
2018-10-01T11:02:55.332Z,7.27
2018-10-01T11:05:28.103Z,6.80
2018-10-01T11:08:00.415Z,6.13
2018-10-01T11:10:33.384Z,7.10
2018-10-01T11:13:06.181Z,7.10
2018-10-01T11:15:38.775Z,6.33
2018-10-01T11:18:12.049Z,7.33
2018-10-01T11:20:44.770Z,7.63
2018-10-01T11:23:17.757Z,7.07
2018-10-01T11:25:50.400Z,8.57
2018-10-01T11:28:23.135Z,9.50
2018-10-01T11:30:55.744Z,10.97
2018-10-01T11:33:28.080Z,12.47
2018-10-01T11:36:00.333Z,10.97
2018-10-01T11:38:33.149Z,11.23
2018-10-01T11:41:05.977Z,10.83
2018-10-01T11:43:39.046Z,12.30
2018-10-01T11:46:11.912Z,9.43
2018-10-01T11:48:44.819Z,8.53
2018-10-01T11:51:17.769Z,8.23
2018-10-01T11:53:50.171Z,7.60
2018-10-01T11:56:22.384Z,10.23
2018-10-01T11:58:55.272Z,12.37
2018-10-01T12:01:28.368Z,11.90
2018-10-01T12:04:01.184Z,11.83
2018-10-01T12:06:34.208Z,9.60
2018-10-01T12:09:10.286Z,11.80
2018-10-01T12:11:43.341Z,11.70
2018-10-01T12:14:16.424Z,12.23
2018-10-01T12:16:49.245Z,10.13
2018-10-01T12:19:22.336Z,10.43
2018-10-01T12:21:55.226Z,9.87
2018-10-01T12:24:28.374Z,10.67
2018-10-01T12:27:01.279Z,11.57
2018-10-01T12:29:34.204Z,11.27
2018-10-01T12:32:07.247Z,12.13
2018-10-01T12:34:40.061Z,11.73
2018-10-01T12:37:12.671Z,13.23
2018-10-01T12:39:45.458Z,12.13
2018-10-01T12:42:17.896Z,13.47
2018-10-01T12:44:50.855Z,14.90
2018-10-01T12:47:23.764Z,12.03
2018-10-01T12:49:56.707Z,13.43
2018-10-01T12:52:29.469Z,13.37
2018-10-01T12:55:02.343Z,12.07
2018-10-01T12:57:35.150Z,10.90
2018-10-01T13:00:07.596Z,8.50
2018-10-01T13:02:40.069Z,8.03
2018-10-01T13:05:13.286Z,7.90
2018-10-01T13:07:46.723Z,8.00
2018-10-01T13:10:19.487Z,6.57
2018-10-01T13:12:52.360Z,6.33
2018-10-01T13:15:25.470Z,6.47
2018-10-01T13:17:58.705Z,6.83
2018-10-01T13:20:31.609Z,6.03
2018-10-01T13:23:04.436Z,6.87
2018-10-01T13:25:37.088Z,6.57
2018-10-01T13:28:09.725Z,7.63
2018-10-01T13:30:42.117Z,9.13
2018-10-01T13:33:14.812Z,12.57
2018-10-01T13:35:47.165Z,8.77
2018-10-01T13:38:19.808Z,8.60
2018-10-01T13:40:52.684Z,8.07
2018-10-01T13:43:25.624Z,7.53
2018-10-01T13:45:58.390Z,7.63
2018-10-01T13:48:31.131Z,7.33
2018-10-01T13:51:04.971Z,6.20
2018-10-01T13:53:37.799Z,5.90
2018-10-01T13:56:10.552Z,5.20
2018-10-01T13:58:43.165Z,9.80
2018-10-01T14:01:18.012Z,10.13
2018-10-01T14:03:51.571Z,7.60
2018-10-01T14:06:23.957Z,6.50
2018-10-01T14:08:56.654Z,6.17
2018-10-01T14:11:29.864Z,5.37
2018-10-01T14:14:02.819Z,6.27
2018-10-01T14:16:35.638Z,4.70
2018-10-01T14:19:08.661Z,4.40
2018-10-01T14:21:42.159Z,4.63
2018-10-01T14:24:15.075Z,4.17
2018-10-01T14:26:47.433Z,4.20
2018-10-01T14:29:20.088Z,3.40
2018-10-01T14:31:54.714Z,4.07
2018-10-01T14:34:27.394Z,3.10
2018-10-01T14:37:00.343Z,3.40
2018-10-01T14:39:33.080Z,3.60
2018-10-01T14:42:05.824Z,3.33
2018-10-01T14:44:38.716Z,3.57
2018-10-01T14:47:12.463Z,4.47
2018-10-01T14:49:44.743Z,3.40
2018-10-01T14:52:18.984Z,3.10
2018-10-01T14:54:51.319Z,3.27
2018-10-01T14:57:24.336Z,3.17
2018-10-01T14:59:57.350Z,2.30
2018-10-01T15:02:30.392Z,2.90
2018-10-01T15:05:03.281Z,2.80
2018-10-01T15:07:36.313Z,3.58
2018-10-01T15:10:09.397Z,6.15
2018-10-01T15:12:42.582Z,3.03
2018-10-01T15:15:14.916Z,2.22
2018-10-01T15:17:49.055Z,4.10
2018-10-01T15:20:22.140Z,3.10
2018-10-01T15:22:55.112Z,3.00
2018-10-01T15:25:28.160Z,2.60
2018-10-01T15:28:01.150Z,2.85
2018-10-01T15:30:35.476Z,4.12
2018-10-01T15:33:09.195Z,3.90
2018-10-01T15:35:42.382Z,4.62
2018-10-01T15:38:14.822Z,3.12
2018-10-01T15:40:47.437Z,3.83
2018-10-01T15:43:20.190Z,3.95
2018-10-01T15:45:53.048Z,2.77
2018-10-01T15:48:25.821Z,2.02
2018-10-01T15:51:01.400Z,3.12
2018-10-01T15:53:35.525Z,3.00
2018-10-01T15:56:08.618Z,2.60
2018-10-01T15:58:40.929Z,4.17
2018-10-01T16:01:13.848Z,2.75
2018-10-01T16:03:46.731Z,3.17
2018-10-01T16:06:19.672Z,3.33
2018-10-01T16:08:52.644Z,2.83
2018-10-01T16:11:25.568Z,2.58
2018-10-01T16:13:58.620Z,2.83
2018-10-01T16:16:31.604Z,2.60
2018-10-01T16:19:04.836Z,2.60
2018-10-01T16:21:37.975Z,3.42
2018-10-01T16:24:10.776Z,3.75
2018-10-01T16:26:43.779Z,3.05
2018-10-01T16:29:16.583Z,3.87
2018-10-01T16:31:49.490Z,4.28
2018-10-01T16:34:22.163Z,3.50
2018-10-01T16:36:55.151Z,3.42
2018-10-01T16:39:29.932Z,1.90
2018-10-01T16:42:03.065Z,2.15
2018-10-01T16:44:35.394Z,3.02
2018-10-01T16:47:08.288Z,2.00
2018-10-01T16:49:41.250Z,2.47
2018-10-01T16:52:14.112Z,1.82
2018-10-01T16:54:47.634Z,1.98
2018-10-01T16:57:21.694Z,3.00
2018-10-01T16:59:54.719Z,3.92
2018-10-01T17:02:27.737Z,2.90
2018-10-01T17:05:00.583Z,4.40
2018-10-01T17:07:34.025Z,4.22
2018-10-01T17:10:07.430Z,7.42
2018-10-01T17:12:40.518Z,3.42
2018-10-01T17:15:13.625Z,4.00
2018-10-01T17:17:47.316Z,5.72
2018-10-01T17:20:20.067Z,5.33
2018-10-01T17:22:52.826Z,6.20
2018-10-01T17:25:26.051Z,3.70
2018-10-01T17:28:00.203Z,3.00
2018-10-01T17:30:32.561Z,3.12
2018-10-01T17:33:05.363Z,2.60
2018-10-01T17:35:38.448Z,2.30
2018-10-01T17:38:11.241Z,2.25
2018-10-01T17:40:44.222Z,3.02
2018-10-01T17:43:16.808Z,3.00
2018-10-01T17:45:51.852Z,2.90
2018-10-01T17:48:25.323Z,4.10
2018-10-01T17:50:59.207Z,3.92
2018-10-01T17:53:32.290Z,5.03
2018-10-01T17:56:06.192Z,2.60
2018-10-01T17:58:39.398Z,2.70
2018-10-01T18:01:12.636Z,3.42
2018-10-01T18:03:45.313Z,3.00
2018-10-01T18:06:19.237Z,3.45
2018-10-01T18:08:52.354Z,5.30
2018-10-01T18:11:25.589Z,3.05
2018-10-01T18:13:58.300Z,1.92
2018-10-01T18:16:31.400Z,2.22
2018-10-01T18:19:03.869Z,2.20
2018-10-01T18:21:38.053Z,2.10
2018-10-01T18:24:10.772Z,3.12
2018-10-01T18:26:43.190Z,4.53
2018-10-01T18:29:15.433Z,3.15
2018-10-01T18:31:48.551Z,4.53
2018-10-01T18:34:20.910Z,4.50
2018-10-01T18:36:53.499Z,2.55
2018-10-01T18:39:28.309Z,3.30
2018-10-01T18:42:00.762Z,2.90
2018-10-01T18:44:33.444Z,2.67
2018-10-01T18:47:05.856Z,5.03
2018-10-01T18:49:38.169Z,5.83
2018-10-01T18:52:11.129Z,4.22
2018-10-01T18:54:44.004Z,2.65
2018-10-01T18:57:17.187Z,2.33
2018-10-01T18:59:49.469Z,2.60
2018-10-01T19:02:21.927Z,1.98
2018-10-01T19:04:54.740Z,4.12
2018-10-01T19:07:27.655Z,4.20
2018-10-01T19:09:59.945Z,2.90
2018-10-01T19:12:33.123Z,3.87
2018-10-01T19:15:05.815Z,3.17
2018-10-01T19:17:39.137Z,2.77
2018-10-01T19:20:13.111Z,2.10
2018-10-01T19:22:45.433Z,2.22
2018-10-01T19:25:17.761Z,2.70
2018-10-01T19:27:53.493Z,3.25
2018-10-01T19:30:26.822Z,2.27
2018-10-01T19:32:59.865Z,4.60
2018-10-01T19:35:32.998Z,4.25
2018-10-01T19:38:06.352Z,3.58
2018-10-01T19:40:39.238Z,3.75
2018-10-01T19:43:14.085Z,2.98
2018-10-01T19:45:49.488Z,2.60
2018-10-01T19:48:23.913Z,2.50
2018-10-01T19:50:57.773Z,3.20
2018-10-01T19:53:30.983Z,3.67
2018-10-01T19:56:05.794Z,2.85
2018-10-01T19:58:39.639Z,2.20
2018-10-01T20:01:12.715Z,2.40
2018-10-01T20:03:45.778Z,4.25
2018-10-01T20:06:21.040Z,3.52
2018-10-01T20:08:55.392Z,2.83
2018-10-01T20:11:29.538Z,2.83
2018-10-01T20:14:02.871Z,4.00
2018-10-01T20:16:36.908Z,2.85
2018-10-01T20:19:11.856Z,3.17
2018-10-01T20:21:45.932Z,2.30
2018-10-01T20:24:22.556Z,2.75
2018-10-01T20:26:57.266Z,2.50
2018-10-01T20:29:33.980Z,3.00
2018-10-01T20:32:07.320Z,3.22
2018-10-01T20:34:42.551Z,3.12
2018-10-01T20:37:15.744Z,4.80
2018-10-01T20:39:49.926Z,2.85
2018-10-01T20:42:25.580Z,4.75
2018-10-01T20:44:58.677Z,4.85
2018-10-01T20:47:31.105Z,3.05
2018-10-01T20:50:05.714Z,2.65
2018-10-01T20:52:38.484Z,6.45
2018-10-01T20:55:11.988Z,4.70
2018-10-01T20:57:45.029Z,2.00
2018-10-01T21:00:20.311Z,4.15
2018-10-01T21:02:52.634Z,3.62
2018-10-01T21:05:25.374Z,2.20
2018-10-01T21:07:59.352Z,2.77
2018-10-01T21:10:32.630Z,2.20
2018-10-01T21:13:06.660Z,3.87
2018-10-01T21:15:40.256Z,3.70
2018-10-01T21:18:15.568Z,4.47
2018-10-01T21:20:49.839Z,7.95
2018-10-01T21:23:24.369Z,3.12
2018-10-01T21:25:59.273Z,3.12
2018-10-01T21:28:32.376Z,1.65
2018-10-01T21:31:05.827Z,4.12
2018-10-01T21:33:39.618Z,8.75
2018-10-01T21:36:12.741Z,3.22
2018-10-01T21:38:47.446Z,7.15
2018-10-01T21:41:23.600Z,3.27
2018-10-01T21:43:57.482Z,2.37
2018-10-01T21:46:31.480Z,2.75
2018-10-01T21:49:04.486Z,3.65
2018-10-01T21:51:37.592Z,4.12
2018-10-01T21:54:11.459Z,4.70
2018-10-01T21:56:44.220Z,3.72
2018-10-01T21:59:16.931Z,3.62
2018-10-01T22:01:54.188Z,3.30
2018-10-01T22:04:27.361Z,4.80
2018-10-01T22:07:00.349Z,4.12
2018-10-01T22:09:33.190Z,5.70
2018-10-01T22:12:06.362Z,2.90
2018-10-01T22:14:39.417Z,4.67
2018-10-01T22:17:13.085Z,5.47
2018-10-01T22:19:45.831Z,4.03
2018-10-01T22:22:20.057Z,6.40
2018-10-01T22:24:52.811Z,3.72
2018-10-01T22:27:25.843Z,3.47
2018-10-01T22:29:59.109Z,3.20
2018-10-01T22:32:32.218Z,4.37
2018-10-01T22:35:06.333Z,7.97
2018-10-01T22:37:39.435Z,2.90
2018-10-01T22:40:13.423Z,3.85
2018-10-01T22:42:47.490Z,3.77
2018-10-01T22:45:20.307Z,3.45
2018-10-01T22:47:52.924Z,4.28
2018-10-01T22:50:25.852Z,4.92
2018-10-01T22:52:58.731Z,4.83
2018-10-01T22:55:31.678Z,3.80
2018-10-01T22:58:04.972Z,3.80
2018-10-01T23:00:37.734Z,2.60
2018-10-01T23:03:11.092Z,3.33
2018-10-01T23:05:44.412Z,4.07
2018-10-01T23:08:17.532Z,2.80
2018-10-01T23:10:50.302Z,3.67
2018-10-01T23:13:23.437Z,3.50
2018-10-01T23:15:56.262Z,3.70
2018-10-01T23:18:30.416Z,4.43
2018-10-01T23:21:04.919Z,4.13
2018-10-01T23:23:38.245Z,4.20
2018-10-01T23:26:11.068Z,4.63
2018-10-01T23:28:44.050Z,4.70
2018-10-01T23:31:16.799Z,8.30
2018-10-01T23:33:49.594Z,4.80
2018-10-01T23:36:22.529Z,7.53
2018-10-01T23:38:55.424Z,4.97
2018-10-01T23:41:28.286Z,6.07
2018-10-01T23:44:01.730Z,4.60
2018-10-01T23:46:34.585Z,4.73
2018-10-01T23:49:07.874Z,4.57
2018-10-01T23:51:40.870Z,4.80
2018-10-01T23:54:15.376Z,5.00
2018-10-01T23:56:48.946Z,5.07
2018-10-01T23:59:21.991Z,5.67
